ZW-0026 weather

Mucumbura River Airport
Mashonaland Central Province, Zimbabwe

Public forecast

Using degrees Celsius for public forecast. Weather courtesy of forecast.io.

METAR (pilot weather report)

Closest report is Robert Gabriel Mugabe International Airport, 109.0 nm (201.9 km) SSW. Retrieved 2019/08/18 19:00 UTC (1 hour ago):

FVRG 181900Z 09005KT CAVOK 13/03 Q1029 NOSIG

TAF (pilot weather forecast)

Forecast is more than 12 hours old.

Closest forecast is Robert Gabriel Mugabe International Airport, 109.0 nm (201.9 km) SSW. Retrieved 2019/08/15 12:00 UTC (3 days ago):

TAF FVRG 151000Z 1512/1618 12018KT CAVOK